FRIANT DAM (MILLERTON) (MIL)

Elevation: 581' · SAN JOAQUIN R basin · Operator: US Bureau of Reclamation

Provisional data, subject to change.
Query executed Saturday at 19:42:41   clock

Select a sensor type for a plot of data.
Note: Reservoir Flows are daily averages.

Earlier

Date RES ELE    STORAGE    RES CHG    TOC STO    ABV TOC    OUTFLOW    INFLOW    EVAP    FNF    RIV REL    PPT INC    SPILL   
 FEET   AF   AF   AF   AF   CFS   CFS   CFS   CFS   CFS   INCHES   CFS  
09/26/2014 488.80 184245 -372 520500 -336255 626 469 31 64 484 0.00 0
09/27/2014 488.76 184139 -106 520500 -336361 456 414 11 27 314 0.03 0
09/28/2014 488.83 184325 186 520500 -336175 389 500 17 446 247 0.11 0
09/29/2014 488.89 184484 159 520500 -336016 394 490 16 12 252 0.00 0
09/30/2014 488.86 184404 -80 520500 -336096 394 372 18 182 252 0.00 0
10/01/2014 488.83 184325 -79 515020 -330695 358 333 15 245 216 0.00 0
10/02/2014 489.11 185071 746 509530 -324459 304 700 20 160 162 0.00 0
10/03/2014 489.26 185473 402 504050 -318577 305 526 18 -78 162 0.00 0
10/04/2014 489.10 185044 -429 498560 -313516 305 107 18 -53 162 0.00 0
10/05/2014 488.90 184511 -533 493080 -308569 304 61 26 51 162 0.00 0
10/06/2014 488.70 183980 -531 487600 -303620 296 51 23 162 154 0.00 0
10/07/2014 488.50 183449 -531 482110 -298661 291 44 21 -29 150 0.00 0
10/08/2014 488.28 182864 -585 476630 -293766 290 20 25 53 150 0.00 0
10/09/2014 488.09 182360 -504 471150 -288790 289 61 26 -134 149 0.00 0
10/10/2014 487.92 181911 -449 465660 -283749 235 37 28 237 151 0.00 0
10/11/2014 487.83 181674 -237 460180 -278506 151 51 19 196 151 0.00 0
10/12/2014 487.68 181279 -395 454694 -273411 232 50 17 90 151 0.00 0
10/13/2014 487.48 180753 -526 449210 -268457 289 49 25 119 151 0.00 0
10/14/2014 487.25 180148 -605 443726 -263582 288 4 21 -84 151 0.00 0
10/15/2014 487.08 179700 -448 438242 -43644492 288 71 9 -43 151 0.00 0
10/16/2014 486.85 179099 -601 435500 -256401 303 13 13 51 167 0.00 0
10/17/2014 486.60 178446 -653 435500 -257054 316 -3 10 24 180 0.00 0
10/18/2014 486.44 178029 -417 435500 -257471 225 40 25 129 180 0.00 0
10/19/2014 486.32 177716 -313 435500 -257784 180 34 12 18 180 0.00 0
10/20/2014 486.12 177194 -522 435500 -258306 269 36 30 57 180 0.00 0
10/21/2014 485.89 176597 -597 435500 -258903 313 20 8 62 180 0.00 0
10/22/2014 485.73 176183 -414 435500 -259317 233 34 10 121 180 0.00 0
10/23/2014 485.61 175873 -310 435500 -259627 180 37 13 49 180 0.00 0
10/24/2014 485.48 175537 -336 435500 -259963 180 28 17 14 180 0.00 0
10/25/2014 -- -- -- -- -- -- -- -- -- -- -- --

Later | Latest

Warning! This data is preliminary and subject to revision.

Show MIL Map | Plot MIL Data | 1 Month MIL Data | Real-Time MIL Data | MIL Info